N7DL KSAT-KPDX
Flight info
| Callsign | N7DL |
|---|---|
| Flight time | 3h 41m |
| Altitude | 38000 |
| Route | ALISS7 ALISS JCT SJT TXO CIM MTJ/N0464F400 TCH TWF KU81K KU87I JOTBA HHOOD6 |
| Aircraft | B738/M-SDE2E3FGHIRWXY/LB1 |
Departure
| Time | 2026-04-23 01:35 |
|---|---|
| Airport | San Antonio International Airport (KSAT) |
Arrival
| Time | 2026-04-23 05:16 |
|---|---|
| Airport | Portland International Airport (KPDX) |
| Time | Latitude | Longitude | Altitude | Speed | Heading |
|---|---|---|---|---|---|
| 2026-04-23 01:16 | 29.52255 | -98.46685 | 792 ft | 0 kts | 316° |
| 2026-04-23 01:26 | 29.52255 | -98.46689 | 792 ft | 1 kts | 281° |
| 2026-04-23 01:26 | 29.52240 | -98.46706 | 792 ft | 7 kts | 218° |
| 2026-04-23 01:26 | 29.52204 | -98.46750 | 794 ft | 8 kts | 255° |
| 2026-04-23 01:26 | 29.52225 | -98.46804 | 794 ft | 8 kts | 313° |
| 2026-04-23 01:27 | 29.52261 | -98.46849 | 794 ft | 8 kts | 312° |
| 2026-04-23 01:27 | 29.52307 | -98.46906 | 792 ft | 11 kts | 312° |
| 2026-04-23 01:27 | 29.52364 | -98.46980 | 790 ft | 13 kts | 311° |
| 2026-04-23 01:27 | 29.52432 | -98.47045 | 791 ft | 13 kts | 348° |
| 2026-04-23 01:28 | 29.52505 | -98.46999 | 789 ft | 13 kts | 41° |
| 2026-04-23 01:28 | 29.52570 | -98.46934 | 788 ft | 12 kts | 41° |
| 2026-04-23 01:28 | 29.52633 | -98.46871 | 789 ft | 12 kts | 41° |
| 2026-04-23 01:28 | 29.52694 | -98.46809 | 789 ft | 12 kts | 41° |
| 2026-04-23 01:29 | 29.52758 | -98.46792 | 788 ft | 11 kts | 321° |
| 2026-04-23 01:29 | 29.52808 | -98.46855 | 787 ft | 11 kts | 311° |
| 2026-04-23 01:29 | 29.52864 | -98.46928 | 789 ft | 13 kts | 311° |
| 2026-04-23 01:29 | 29.52923 | -98.47005 | 792 ft | 13 kts | 311° |
| 2026-04-23 01:30 | 29.52989 | -98.47088 | 793 ft | 15 kts | 312° |
| 2026-04-23 01:30 | 29.53062 | -98.47182 | 795 ft | 16 kts | 311° |
| 2026-04-23 01:30 | 29.53136 | -98.47277 | 798 ft | 16 kts | 311° |
| 2026-04-23 01:30 | 29.53214 | -98.47379 | 798 ft | 18 kts | 311° |
| 2026-04-23 01:31 | 29.53302 | -98.47492 | 799 ft | 19 kts | 312° |
| 2026-04-23 01:31 | 29.53389 | -98.47604 | 799 ft | 18 kts | 311° |
| 2026-04-23 01:31 | 29.53471 | -98.47710 | 800 ft | 18 kts | 312° |
| 2026-04-23 01:31 | 29.53552 | -98.47814 | 803 ft | 17 kts | 311° |
| 2026-04-23 01:32 | 29.53629 | -98.47914 | 805 ft | 16 kts | 312° |
| 2026-04-23 01:32 | 29.53705 | -98.48010 | 809 ft | 16 kts | 312° |
| 2026-04-23 01:32 | 29.53778 | -98.48102 | 812 ft | 15 kts | 312° |
| 2026-04-23 01:32 | 29.53847 | -98.48192 | 813 ft | 15 kts | 310° |
| 2026-04-23 01:33 | 29.53915 | -98.48282 | 814 ft | 15 kts | 311° |
| 2026-04-23 01:33 | 29.53985 | -98.48374 | 817 ft | 15 kts | 311° |
| 2026-04-23 01:33 | 29.54054 | -98.48462 | 809 ft | 14 kts | 312° |
| 2026-04-23 01:33 | 29.54119 | -98.48544 | 813 ft | 14 kts | 312° |
| 2026-04-23 01:34 | 29.54176 | -98.48606 | 817 ft | 8 kts | 338° |
| 2026-04-23 01:34 | 29.54227 | -98.48586 | 818 ft | 8 kts | 35° |
| 2026-04-23 01:34 | 29.54257 | -98.48539 | 815 ft | 8 kts | 93° |
| 2026-04-23 01:34 | 29.54227 | -98.48489 | 817 ft | 8 kts | 132° |
| 2026-04-23 01:35 | 29.54166 | -98.48411 | 816 ft | 32 kts | 131° |
| 2026-04-23 01:35 | 29.53852 | -98.48007 | 811 ft | 102 kts | 131° |
| 2026-04-23 01:35 | 29.53243 | -98.47227 | 812 ft | 156 kts | 132° |
| 2026-04-23 01:35 | 29.52509 | -98.46288 | 1501 ft | 155 kts | 131° |
| 2026-04-23 01:36 | 29.51781 | -98.45377 | 2262 ft | 158 kts | 133° |
| 2026-04-23 01:36 | 29.50988 | -98.44331 | 2629 ft | 190 kts | 132° |
| 2026-04-23 01:36 | 29.50119 | -98.43078 | 2843 ft | 216 kts | 125° |
| 2026-04-23 01:36 | 29.49412 | -98.41469 | 3187 ft | 232 kts | 111° |
| 2026-04-23 01:37 | 29.49213 | -98.39581 | 3574 ft | 252 kts | 84° |
| 2026-04-23 01:37 | 29.49997 | -98.37732 | 4071 ft | 274 kts | 48° |
| 2026-04-23 01:37 | 29.51640 | -98.36612 | 4707 ft | 275 kts | 14° |
| 2026-04-23 01:37 | 29.53549 | -98.36647 | 4993 ft | 283 kts | 339° |
| 2026-04-23 01:38 | 29.55201 | -98.37800 | 5848 ft | 279 kts | 318° |
| 2026-04-23 01:38 | 29.56630 | -98.39288 | 6816 ft | 275 kts | 315° |
| 2026-04-23 01:38 | 29.58024 | -98.40814 | 7630 ft | 277 kts | 315° |
| 2026-04-23 01:38 | 29.59407 | -98.42343 | 8515 ft | 275 kts | 315° |
| 2026-04-23 01:39 | 29.60737 | -98.43906 | 9399 ft | 274 kts | 312° |
| 2026-04-23 01:39 | 29.62050 | -98.45529 | 10139 ft | 278 kts | 311° |
| 2026-04-23 01:39 | 29.63394 | -98.47203 | 10529 ft | 296 kts | 312° |
| 2026-04-23 01:39 | 29.64852 | -98.49011 | 10702 ft | 319 kts | 312° |
| 2026-04-23 01:40 | 29.66418 | -98.50945 | 10858 ft | 341 kts | 312° |
| 2026-04-23 01:40 | 29.68075 | -98.52983 | 11184 ft | 354 kts | 312° |
| 2026-04-23 01:40 | 29.69771 | -98.55063 | 11807 ft | 357 kts | 312° |
| 2026-04-23 01:40 | 29.71468 | -98.57141 | 12578 ft | 356 kts | 312° |
| 2026-04-23 01:41 | 29.73173 | -98.59229 | 13277 ft | 359 kts | 312° |
| 2026-04-23 01:41 | 29.74870 | -98.61309 | 13934 ft | 362 kts | 312° |
| 2026-04-23 01:41 | 29.76607 | -98.63440 | 14533 ft | 365 kts | 312° |
| 2026-04-23 01:41 | 29.78348 | -98.65592 | 15149 ft | 368 kts | 311° |
| 2026-04-23 01:42 | 29.80025 | -98.67858 | 15759 ft | 372 kts | 308° |
| 2026-04-23 01:42 | 29.81640 | -98.70164 | 16371 ft | 375 kts | 308° |
| 2026-04-23 01:42 | 29.83279 | -98.72527 | 16968 ft | 379 kts | 308° |
| 2026-04-23 01:42 | 29.84942 | -98.74910 | 17576 ft | 382 kts | 308° |
| 2026-04-23 01:43 | 29.86609 | -98.77276 | 18154 ft | 385 kts | 309° |
| 2026-04-23 01:43 | 29.88310 | -98.79683 | 18671 ft | 389 kts | 309° |
| 2026-04-23 01:43 | 29.90021 | -98.82099 | 19200 ft | 391 kts | 309° |
| 2026-04-23 01:43 | 29.91752 | -98.84539 | 19766 ft | 392 kts | 309° |
| 2026-04-23 01:44 | 29.93481 | -98.86976 | 20316 ft | 394 kts | 309° |
| 2026-04-23 01:44 | 29.95230 | -98.89441 | 20820 ft | 397 kts | 309° |
| 2026-04-23 01:44 | 29.96986 | -98.91921 | 21326 ft | 400 kts | 309° |
| 2026-04-23 01:44 | 29.98750 | -98.94414 | 21826 ft | 402 kts | 309° |
| 2026-04-23 01:45 | 30.00526 | -98.96925 | 22310 ft | 405 kts | 309° |
| 2026-04-23 01:45 | 30.02312 | -98.99453 | 22782 ft | 407 kts | 309° |
| 2026-04-23 01:45 | 30.04089 | -99.01968 | 23236 ft | 410 kts | 309° |
| 2026-04-23 01:45 | 30.05899 | -99.04534 | 23652 ft | 413 kts | 309° |
| 2026-04-23 01:46 | 30.07715 | -99.07109 | 24000 ft | 415 kts | 309° |
| 2026-04-23 01:46 | 30.09544 | -99.09703 | 24396 ft | 416 kts | 309° |
| 2026-04-23 01:46 | 30.11376 | -99.12305 | 24781 ft | 418 kts | 309° |
| 2026-04-23 01:46 | 30.13214 | -99.14915 | 25148 ft | 420 kts | 309° |
| 2026-04-23 01:47 | 30.15064 | -99.17545 | 25507 ft | 422 kts | 308° |
| 2026-04-23 01:47 | 30.16907 | -99.20167 | 25860 ft | 424 kts | 308° |
| 2026-04-23 01:47 | 30.18769 | -99.22818 | 26198 ft | 426 kts | 308° |
| 2026-04-23 01:47 | 30.20650 | -99.25497 | 26526 ft | 428 kts | 308° |
| 2026-04-23 01:48 | 30.22517 | -99.28159 | 26866 ft | 429 kts | 308° |
| 2026-04-23 01:48 | 30.24412 | -99.30863 | 27179 ft | 431 kts | 308° |
| 2026-04-23 01:48 | 30.26287 | -99.33539 | 27486 ft | 433 kts | 308° |
| 2026-04-23 01:48 | 30.28189 | -99.36257 | 27801 ft | 434 kts | 308° |
| 2026-04-23 01:49 | 30.30081 | -99.38962 | 28116 ft | 436 kts | 308° |
| 2026-04-23 01:49 | 30.31990 | -99.41693 | 28445 ft | 437 kts | 308° |
| 2026-04-23 01:49 | 30.33908 | -99.44439 | 28756 ft | 439 kts | 308° |
| 2026-04-23 01:49 | 30.35823 | -99.47183 | 29154 ft | 438 kts | 308° |
| 2026-04-23 01:50 | 30.37732 | -99.49919 | 29693 ft | 434 kts | 308° |
| 2026-04-23 01:50 | 30.39622 | -99.52631 | 30210 ft | 431 kts | 308° |
| 2026-04-23 01:50 | 30.41502 | -99.55329 | 30625 ft | 429 kts | 308° |
| 2026-04-23 01:50 | 30.43370 | -99.58013 | 31001 ft | 428 kts | 308° |
| 2026-04-23 01:51 | 30.45237 | -99.60697 | 31390 ft | 426 kts | 308° |
| 2026-04-23 01:51 | 30.46466 | -99.62466 | 31671 ft | 424 kts | 308° |
| 2026-04-23 01:51 | 30.48321 | -99.65135 | 32102 ft | 422 kts | 308° |
| 2026-04-23 01:51 | 30.50755 | -99.68641 | 32638 ft | 419 kts | 308° |
| 2026-04-23 01:52 | 30.51989 | -99.70421 | 32888 ft | 418 kts | 308° |
| 2026-04-23 01:52 | 30.53811 | -99.73048 | 33215 ft | 418 kts | 308° |
| 2026-04-23 01:52 | 30.55606 | -99.75638 | 33584 ft | 416 kts | 308° |
| 2026-04-23 01:52 | 30.57417 | -99.78253 | 33956 ft | 414 kts | 308° |
| 2026-04-23 01:53 | 30.59281 | -99.80800 | 34239 ft | 414 kts | 313° |
| 2026-04-23 01:53 | 30.61406 | -99.83079 | 34487 ft | 415 kts | 320° |
| 2026-04-23 01:53 | 30.63763 | -99.85026 | 34737 ft | 415 kts | 323° |
| 2026-04-23 01:53 | 30.66137 | -99.86928 | 35012 ft | 415 kts | 323° |
| 2026-04-23 01:54 | 30.68513 | -99.88832 | 35251 ft | 414 kts | 323° |
| 2026-04-23 01:54 | 30.70880 | -99.90738 | 35498 ft | 414 kts | 322° |
| 2026-04-23 01:54 | 30.73240 | -99.92647 | 35759 ft | 413 kts | 322° |
| 2026-04-23 01:54 | 30.75566 | -99.94537 | 36002 ft | 412 kts | 322° |
| 2026-04-23 01:55 | 30.77915 | -99.96452 | 36221 ft | 412 kts | 322° |
| 2026-04-23 01:55 | 30.80275 | -99.98379 | 36453 ft | 412 kts | 322° |
| 2026-04-23 01:55 | 30.82622 | -100.00298 | 36709 ft | 411 kts | 321° |
| 2026-04-23 01:55 | 30.84946 | -100.02199 | 36957 ft | 411 kts | 321° |
| 2026-04-23 01:56 | 30.87285 | -100.04114 | 37150 ft | 411 kts | 321° |
| 2026-04-23 01:56 | 30.89636 | -100.06040 | 37336 ft | 412 kts | 321° |
| 2026-04-23 01:56 | 30.91955 | -100.07941 | 37556 ft | 411 kts | 321° |
| 2026-04-23 01:56 | 30.94296 | -100.09859 | 37812 ft | 410 kts | 321° |
| 2026-04-23 01:57 | 30.98988 | -100.13712 | 37891 ft | 414 kts | 321° |
| 2026-04-23 01:57 | 31.03704 | -100.17586 | 37878 ft | 412 kts | 321° |
| 2026-04-23 01:58 | 31.08350 | -100.21407 | 37884 ft | 410 kts | 321° |
| 2026-04-23 01:58 | 31.13012 | -100.25247 | 37892 ft | 408 kts | 321° |
| 2026-04-23 01:59 | 31.17645 | -100.29068 | 37911 ft | 408 kts | 321° |
| 2026-04-23 01:59 | 31.22256 | -100.32876 | 37919 ft | 408 kts | 321° |
| 2026-04-23 02:00 | 31.26925 | -100.36737 | 37926 ft | 410 kts | 321° |
| 2026-04-23 02:00 | 31.31568 | -100.40582 | 37947 ft | 412 kts | 321° |
| 2026-04-23 02:01 | 31.36271 | -100.44478 | 37951 ft | 415 kts | 321° |
| 2026-04-23 02:01 | 31.41071 | -100.48233 | 37949 ft | 419 kts | 324° |
| 2026-04-23 02:02 | 31.46042 | -100.51843 | 37942 ft | 421 kts | 324° |
| 2026-04-23 02:02 | 31.51047 | -100.55469 | 37928 ft | 423 kts | 324° |
| 2026-04-23 02:03 | 31.56013 | -100.59101 | 37910 ft | 423 kts | 324° |
| 2026-04-23 02:03 | 31.61031 | -100.62794 | 37887 ft | 423 kts | 324° |
| 2026-04-23 02:04 | 31.66002 | -100.66462 | 37868 ft | 423 kts | 324° |
| 2026-04-23 02:04 | 31.70972 | -100.70135 | 37850 ft | 423 kts | 324° |
| 2026-04-23 02:05 | 31.75956 | -100.73823 | 37853 ft | 422 kts | 324° |
| 2026-04-23 02:05 | 31.80923 | -100.77503 | 37845 ft | 421 kts | 324° |
| 2026-04-23 02:06 | 31.85875 | -100.81176 | 37835 ft | 421 kts | 324° |
| 2026-04-23 02:06 | 31.90813 | -100.84844 | 37834 ft | 420 kts | 324° |
| 2026-04-23 02:07 | 31.95735 | -100.88503 | 37828 ft | 420 kts | 324° |
| 2026-04-23 02:07 | 32.00693 | -100.92196 | 37821 ft | 420 kts | 324° |
| 2026-04-23 02:08 | 32.05621 | -100.95871 | 37812 ft | 419 kts | 324° |
| 2026-04-23 02:08 | 32.10528 | -100.99534 | 37811 ft | 419 kts | 324° |
| 2026-04-23 02:09 | 32.15470 | -101.03228 | 37813 ft | 419 kts | 324° |
| 2026-04-23 02:09 | 32.20414 | -101.06929 | 37809 ft | 419 kts | 323° |
| 2026-04-23 02:10 | 32.25323 | -101.10608 | 37798 ft | 420 kts | 323° |
| 2026-04-23 02:10 | 32.30267 | -101.14318 | 37818 ft | 420 kts | 323° |
| 2026-04-23 02:11 | 32.35183 | -101.18012 | 37804 ft | 420 kts | 323° |
| 2026-04-23 02:11 | 32.40123 | -101.21729 | 37804 ft | 420 kts | 323° |
| 2026-04-23 02:12 | 32.45035 | -101.25430 | 37803 ft | 420 kts | 323° |
| 2026-04-23 02:12 | 32.49980 | -101.29160 | 37786 ft | 420 kts | 323° |
| 2026-04-23 02:13 | 32.54890 | -101.32870 | 37787 ft | 420 kts | 323° |
| 2026-04-23 02:13 | 32.59833 | -101.36609 | 37769 ft | 421 kts | 323° |
| 2026-04-23 02:14 | 32.64745 | -101.40329 | 37768 ft | 421 kts | 323° |
| 2026-04-23 02:14 | 32.69711 | -101.44096 | 37769 ft | 422 kts | 323° |
| 2026-04-23 02:15 | 32.77134 | -101.49734 | 37765 ft | 423 kts | 323° |
| 2026-04-23 02:16 | 32.82082 | -101.53500 | 37777 ft | 423 kts | 323° |
| 2026-04-23 02:16 | 32.87020 | -101.57262 | 37785 ft | 423 kts | 323° |
| 2026-04-23 02:17 | 32.91974 | -101.61042 | 37785 ft | 424 kts | 323° |
| 2026-04-23 02:17 | 32.96962 | -101.64853 | 37780 ft | 425 kts | 323° |
| 2026-04-23 02:18 | 33.01912 | -101.68640 | 37772 ft | 425 kts | 323° |
| 2026-04-23 02:18 | 33.06894 | -101.72457 | 37759 ft | 425 kts | 323° |
| 2026-04-23 02:19 | 33.11882 | -101.76284 | 37750 ft | 426 kts | 323° |
| 2026-04-23 02:19 | 33.16769 | -101.80037 | 37747 ft | 426 kts | 323° |
| 2026-04-23 02:20 | 33.21756 | -101.83873 | 37741 ft | 425 kts | 323° |
| 2026-04-23 02:20 | 33.26737 | -101.87710 | 37741 ft | 425 kts | 323° |
| 2026-04-23 02:21 | 33.31702 | -101.91540 | 37745 ft | 425 kts | 323° |
| 2026-04-23 02:21 | 33.36665 | -101.95373 | 37762 ft | 425 kts | 323° |
| 2026-04-23 02:22 | 33.41639 | -101.99220 | 37776 ft | 425 kts | 323° |
| 2026-04-23 02:22 | 33.46590 | -102.03056 | 37785 ft | 425 kts | 323° |
| 2026-04-23 02:23 | 33.51546 | -102.06899 | 37792 ft | 426 kts | 323° |
| 2026-04-23 02:23 | 33.56535 | -102.10775 | 37819 ft | 426 kts | 323° |
| 2026-04-23 02:24 | 33.61495 | -102.14633 | 37834 ft | 427 kts | 323° |
| 2026-04-23 02:24 | 33.66497 | -102.18529 | 37835 ft | 427 kts | 323° |
| 2026-04-23 02:25 | 33.71457 | -102.22398 | 37829 ft | 428 kts | 323° |
| 2026-04-23 02:25 | 33.76465 | -102.26309 | 37812 ft | 428 kts | 323° |
| 2026-04-23 02:26 | 33.81430 | -102.30192 | 37794 ft | 428 kts | 323° |
| 2026-04-23 02:26 | 33.86422 | -102.34102 | 37758 ft | 427 kts | 323° |
| 2026-04-23 02:27 | 33.91414 | -102.38017 | 37732 ft | 427 kts | 322° |
| 2026-04-23 02:27 | 33.96360 | -102.41902 | 37728 ft | 426 kts | 322° |
| 2026-04-23 02:28 | 34.01325 | -102.45808 | 37740 ft | 425 kts | 322° |
| 2026-04-23 02:28 | 34.06260 | -102.49696 | 37732 ft | 424 kts | 322° |
| 2026-04-23 02:29 | 34.11204 | -102.53596 | 37743 ft | 423 kts | 322° |
| 2026-04-23 02:29 | 34.16119 | -102.57479 | 37753 ft | 423 kts | 322° |
| 2026-04-23 02:30 | 34.21040 | -102.61373 | 37761 ft | 423 kts | 322° |
| 2026-04-23 02:30 | 34.25972 | -102.65280 | 37769 ft | 424 kts | 322° |
| 2026-04-23 02:31 | 34.30905 | -102.69194 | 37783 ft | 426 kts | 322° |
| 2026-04-23 02:31 | 34.35871 | -102.73140 | 37808 ft | 427 kts | 322° |
| 2026-04-23 02:32 | 34.40834 | -102.77089 | 37829 ft | 428 kts | 322° |
| 2026-04-23 02:32 | 34.45831 | -102.81070 | 37844 ft | 429 kts | 322° |
| 2026-04-23 02:33 | 34.50729 | -102.85118 | 37847 ft | 426 kts | 317° |
| 2026-04-23 02:33 | 34.55345 | -102.89631 | 37851 ft | 426 kts | 316° |
| 2026-04-23 02:34 | 34.59911 | -102.94211 | 37847 ft | 425 kts | 316° |
| 2026-04-23 02:34 | 34.64475 | -102.98766 | 37838 ft | 425 kts | 316° |
| 2026-04-23 02:35 | 34.69057 | -103.03317 | 37819 ft | 425 kts | 316° |
| 2026-04-23 02:35 | 34.73604 | -103.07828 | 37795 ft | 424 kts | 316° |
| 2026-04-23 02:36 | 34.78176 | -103.12367 | 37763 ft | 423 kts | 316° |
| 2026-04-23 02:36 | 34.82721 | -103.16888 | 37752 ft | 422 kts | 316° |
| 2026-04-23 02:37 | 34.87270 | -103.21420 | 37741 ft | 422 kts | 316° |
| 2026-04-23 02:37 | 34.91791 | -103.25930 | 37733 ft | 421 kts | 316° |
| 2026-04-23 02:38 | 34.96326 | -103.30462 | 37733 ft | 421 kts | 316° |
| 2026-04-23 02:38 | 35.00834 | -103.34973 | 37740 ft | 420 kts | 316° |
| 2026-04-23 02:39 | 35.05369 | -103.39519 | 37762 ft | 420 kts | 316° |
| 2026-04-23 02:39 | 35.09121 | -103.43284 | 37780 ft | 420 kts | 316° |
| 2026-04-23 02:40 | 35.13654 | -103.47839 | 37802 ft | 421 kts | 316° |
| 2026-04-23 02:40 | 35.18171 | -103.52385 | 37812 ft | 421 kts | 316° |
| 2026-04-23 02:41 | 35.22695 | -103.56945 | 37818 ft | 422 kts | 316° |
| 2026-04-23 02:41 | 35.27209 | -103.61501 | 37814 ft | 422 kts | 316° |
| 2026-04-23 02:42 | 35.31755 | -103.66097 | 37791 ft | 423 kts | 316° |
| 2026-04-23 02:42 | 35.36306 | -103.70704 | 37748 ft | 424 kts | 316° |
| 2026-04-23 02:43 | 35.40833 | -103.75294 | 37720 ft | 425 kts | 316° |
| 2026-04-23 02:43 | 35.45387 | -103.79919 | 37691 ft | 425 kts | 315° |
| 2026-04-23 02:44 | 35.49954 | -103.84563 | 37661 ft | 426 kts | 316° |
| 2026-04-23 02:44 | 35.54525 | -103.89219 | 37654 ft | 427 kts | 315° |
| 2026-04-23 02:45 | 35.59094 | -103.93880 | 37660 ft | 427 kts | 315° |
| 2026-04-23 02:45 | 35.63635 | -103.98520 | 37669 ft | 427 kts | 315° |
| 2026-04-23 02:46 | 35.68202 | -104.03193 | 37671 ft | 427 kts | 315° |
| 2026-04-23 02:46 | 35.72782 | -104.07887 | 37662 ft | 427 kts | 315° |
| 2026-04-23 02:47 | 35.77336 | -104.12561 | 37684 ft | 427 kts | 315° |
| 2026-04-23 02:47 | 35.81865 | -104.17217 | 37667 ft | 426 kts | 315° |
| 2026-04-23 02:48 | 35.86443 | -104.21931 | 37691 ft | 426 kts | 315° |
| 2026-04-23 02:48 | 35.90975 | -104.26604 | 37683 ft | 426 kts | 315° |
| 2026-04-23 02:49 | 35.95528 | -104.31306 | 37683 ft | 426 kts | 315° |
| 2026-04-23 02:49 | 36.00067 | -104.36001 | 37687 ft | 426 kts | 315° |
| 2026-04-23 02:50 | 36.04586 | -104.40684 | 37692 ft | 426 kts | 315° |
| 2026-04-23 02:50 | 36.09107 | -104.45375 | 37703 ft | 426 kts | 315° |
| 2026-04-23 02:51 | 36.13615 | -104.50060 | 37705 ft | 427 kts | 315° |
| 2026-04-23 02:51 | 36.18169 | -104.54801 | 37702 ft | 428 kts | 315° |
| 2026-04-23 02:52 | 36.22712 | -104.59538 | 37709 ft | 429 kts | 315° |
| 2026-04-23 02:52 | 36.27295 | -104.64323 | 37718 ft | 430 kts | 315° |
| 2026-04-23 02:53 | 36.31863 | -104.69100 | 37717 ft | 430 kts | 315° |
| 2026-04-23 02:53 | 36.36439 | -104.73894 | 37727 ft | 431 kts | 315° |
| 2026-04-23 02:54 | 36.41010 | -104.78690 | 37735 ft | 432 kts | 315° |
| 2026-04-23 02:54 | 36.45589 | -104.83502 | 37751 ft | 432 kts | 315° |
| 2026-04-23 02:55 | 36.50069 | -104.88461 | 37775 ft | 428 kts | 308° |
| 2026-04-23 02:55 | 36.53980 | -104.94067 | 37825 ft | 427 kts | 306° |
| 2026-04-23 02:56 | 36.57825 | -104.99684 | 37863 ft | 428 kts | 306° |
| 2026-04-23 02:56 | 36.61714 | -105.05337 | 37869 ft | 430 kts | 306° |
| 2026-04-23 02:57 | 36.65600 | -105.10963 | 37873 ft | 431 kts | 307° |
| 2026-04-23 02:57 | 36.69515 | -105.16628 | 37859 ft | 430 kts | 306° |
| 2026-04-23 02:58 | 36.73417 | -105.22280 | 37864 ft | 431 kts | 307° |
| 2026-04-23 02:58 | 36.77343 | -105.27979 | 37833 ft | 432 kts | 306° |
| 2026-04-23 02:59 | 36.81239 | -105.33646 | 37830 ft | 431 kts | 306° |
| 2026-04-23 02:59 | 36.85134 | -105.39319 | 37830 ft | 432 kts | 306° |
| 2026-04-23 03:00 | 36.89036 | -105.45013 | 37838 ft | 431 kts | 306° |
| 2026-04-23 03:00 | 36.92926 | -105.50697 | 37839 ft | 428 kts | 306° |
| 2026-04-23 03:01 | 36.96780 | -105.56338 | 37826 ft | 426 kts | 305° |
| 2026-04-23 03:01 | 37.00621 | -105.61973 | 37817 ft | 423 kts | 305° |
| 2026-04-23 03:02 | 37.04401 | -105.67526 | 37816 ft | 420 kts | 305° |
| 2026-04-23 03:02 | 37.08188 | -105.73099 | 37805 ft | 417 kts | 305° |
| 2026-04-23 03:03 | 37.11912 | -105.78589 | 37824 ft | 414 kts | 305° |
| 2026-04-23 03:03 | 37.15643 | -105.84099 | 37862 ft | 412 kts | 304° |
| 2026-04-23 03:04 | 37.19352 | -105.89587 | 37886 ft | 412 kts | 304° |
| 2026-04-23 03:04 | 37.23048 | -105.95065 | 37905 ft | 413 kts | 304° |
| 2026-04-23 03:05 | 37.26758 | -106.00572 | 37920 ft | 415 kts | 304° |
| 2026-04-23 03:05 | 37.30495 | -106.06129 | 37919 ft | 417 kts | 304° |
| 2026-04-23 03:06 | 37.34225 | -106.11684 | 37917 ft | 419 kts | 304° |
| 2026-04-23 03:06 | 37.37990 | -106.17300 | 37898 ft | 421 kts | 304° |
| 2026-04-23 03:07 | 37.41776 | -106.22956 | 37866 ft | 422 kts | 304° |
| 2026-04-23 03:07 | 37.45553 | -106.28608 | 37899 ft | 423 kts | 304° |
| 2026-04-23 03:08 | 37.49328 | -106.34264 | 37918 ft | 423 kts | 304° |
| 2026-04-23 03:08 | 37.53110 | -106.39944 | 37943 ft | 422 kts | 304° |
| 2026-04-23 03:09 | 37.56883 | -106.45623 | 37969 ft | 421 kts | 304° |
| 2026-04-23 03:09 | 37.60628 | -106.51268 | 37976 ft | 421 kts | 304° |
| 2026-04-23 03:10 | 37.64395 | -106.56952 | 37980 ft | 419 kts | 304° |
| 2026-04-23 03:10 | 37.68128 | -106.62597 | 37948 ft | 418 kts | 304° |
| 2026-04-23 03:11 | 37.71845 | -106.68229 | 37949 ft | 416 kts | 303° |
| 2026-04-23 03:11 | 37.75539 | -106.73836 | 37919 ft | 416 kts | 303° |
| 2026-04-23 03:12 | 37.79218 | -106.79426 | 37911 ft | 413 kts | 303° |
| 2026-04-23 03:12 | 37.82897 | -106.85028 | 37911 ft | 411 kts | 303° |
| 2026-04-23 03:13 | 37.86522 | -106.90557 | 37892 ft | 408 kts | 302° |
| 2026-04-23 03:13 | 37.90137 | -106.96090 | 37892 ft | 403 kts | 302° |
| 2026-04-23 03:14 | 37.93677 | -107.01503 | 37913 ft | 401 kts | 302° |
| 2026-04-23 03:14 | 37.97241 | -107.06971 | 37921 ft | 402 kts | 301° |
| 2026-04-23 03:15 | 38.00813 | -107.12460 | 37925 ft | 403 kts | 302° |
| 2026-04-23 03:15 | 38.04384 | -107.17953 | 37915 ft | 405 kts | 302° |
| 2026-04-23 03:16 | 38.07987 | -107.23502 | 37911 ft | 407 kts | 302° |
| 2026-04-23 03:16 | 38.13382 | -107.31833 | 37911 ft | 410 kts | 302° |
| 2026-04-23 03:17 | 38.17022 | -107.37465 | 37879 ft | 412 kts | 302° |
| 2026-04-23 03:17 | 38.20666 | -107.43113 | 37863 ft | 413 kts | 302° |
| 2026-04-23 03:18 | 38.24301 | -107.48756 | 37844 ft | 412 kts | 302° |
| 2026-04-23 03:18 | 38.27900 | -107.54353 | 37822 ft | 409 kts | 302° |
| 2026-04-23 03:19 | 38.31484 | -107.59934 | 37818 ft | 403 kts | 301° |
| 2026-04-23 03:19 | 38.34988 | -107.65403 | 37848 ft | 397 kts | 302° |
| 2026-04-23 03:20 | 38.38488 | -107.70880 | 37875 ft | 397 kts | 301° |
| 2026-04-23 03:20 | 38.41967 | -107.76333 | 37895 ft | 399 kts | 301° |
| 2026-04-23 03:21 | 38.45492 | -107.81868 | 37923 ft | 401 kts | 301° |
| 2026-04-23 03:21 | 38.49014 | -107.87402 | 37913 ft | 404 kts | 301° |
| 2026-04-23 03:22 | 38.52523 | -107.92982 | 37913 ft | 405 kts | 301° |
| 2026-04-23 03:22 | 38.55998 | -107.98684 | 37905 ft | 407 kts | 301° |
| 2026-04-23 03:23 | 38.59477 | -108.04423 | 37868 ft | 409 kts | 300° |
| 2026-04-23 03:23 | 38.62974 | -108.10185 | 37841 ft | 410 kts | 300° |
| 2026-04-23 03:24 | 38.66480 | -108.15962 | 37856 ft | 411 kts | 300° |
| 2026-04-23 03:24 | 38.69975 | -108.21728 | 37852 ft | 411 kts | 300° |
| 2026-04-23 03:25 | 38.73470 | -108.27504 | 37848 ft | 412 kts | 300° |
| 2026-04-23 03:25 | 38.76395 | -108.32346 | 37819 ft | 412 kts | 300° |
| 2026-04-23 03:26 | 38.80485 | -108.39126 | 37789 ft | 411 kts | 300° |
| 2026-04-23 03:26 | 38.83969 | -108.44914 | 37769 ft | 411 kts | 300° |
| 2026-04-23 03:27 | 38.86880 | -108.49763 | 37792 ft | 412 kts | 300° |
| 2026-04-23 03:27 | 38.90380 | -108.55597 | 37820 ft | 412 kts | 300° |
| 2026-04-23 03:28 | 38.93882 | -108.61446 | 37825 ft | 413 kts | 300° |
| 2026-04-23 03:28 | 38.97374 | -108.67290 | 37821 ft | 414 kts | 300° |
| 2026-04-23 03:29 | 39.00897 | -108.73196 | 37824 ft | 415 kts | 300° |
| 2026-04-23 03:29 | 39.04395 | -108.79069 | 37810 ft | 416 kts | 300° |
| 2026-04-23 03:30 | 39.07918 | -108.84997 | 37792 ft | 416 kts | 300° |
| 2026-04-23 03:30 | 39.11445 | -108.90941 | 37787 ft | 416 kts | 301° |
| 2026-04-23 03:31 | 39.14940 | -108.96841 | 37753 ft | 416 kts | 300° |
| 2026-04-23 03:31 | 39.18446 | -109.02774 | 37750 ft | 417 kts | 300° |
| 2026-04-23 03:32 | 39.21969 | -109.08746 | 37752 ft | 417 kts | 300° |
| 2026-04-23 03:32 | 39.25483 | -109.14714 | 37763 ft | 417 kts | 301° |
| 2026-04-23 03:33 | 39.28993 | -109.20684 | 37761 ft | 417 kts | 300° |
| 2026-04-23 03:33 | 39.32491 | -109.26645 | 37790 ft | 416 kts | 300° |
| 2026-04-23 03:34 | 39.35967 | -109.32584 | 37781 ft | 416 kts | 301° |
| 2026-04-23 03:34 | 39.39463 | -109.38561 | 37781 ft | 415 kts | 301° |
| 2026-04-23 03:35 | 39.42937 | -109.44514 | 37820 ft | 416 kts | 301° |
| 2026-04-23 03:35 | 39.46425 | -109.50510 | 37822 ft | 419 kts | 301° |
| 2026-04-23 03:36 | 39.49884 | -109.56465 | 37834 ft | 422 kts | 301° |
| 2026-04-23 03:36 | 39.53409 | -109.62542 | 37831 ft | 424 kts | 301° |
| 2026-04-23 03:37 | 39.56969 | -109.68690 | 37852 ft | 425 kts | 301° |
| 2026-04-23 03:37 | 39.60516 | -109.74825 | 37865 ft | 427 kts | 301° |
| 2026-04-23 03:38 | 39.64078 | -109.81001 | 37869 ft | 427 kts | 301° |
| 2026-04-23 03:38 | 39.67617 | -109.87146 | 37866 ft | 426 kts | 301° |
| 2026-04-23 03:39 | 39.71161 | -109.93311 | 37868 ft | 423 kts | 301° |
| 2026-04-23 03:39 | 39.74661 | -109.99415 | 37880 ft | 421 kts | 301° |
| 2026-04-23 03:40 | 39.78136 | -110.05489 | 37880 ft | 420 kts | 301° |
| 2026-04-23 03:40 | 39.81636 | -110.11617 | 37881 ft | 419 kts | 301° |
| 2026-04-23 03:41 | 39.85094 | -110.17683 | 37881 ft | 418 kts | 301° |
| 2026-04-23 03:41 | 39.88542 | -110.23743 | 37894 ft | 418 kts | 301° |
| 2026-04-23 03:42 | 39.92010 | -110.29850 | 37898 ft | 417 kts | 301° |
| 2026-04-23 03:42 | 39.95459 | -110.35936 | 37910 ft | 418 kts | 301° |
| 2026-04-23 03:43 | 39.98920 | -110.42054 | 37910 ft | 419 kts | 301° |
| 2026-04-23 03:43 | 40.02366 | -110.48159 | 37917 ft | 421 kts | 301° |
| 2026-04-23 03:44 | 40.05846 | -110.54337 | 37926 ft | 423 kts | 301° |
| 2026-04-23 03:44 | 40.09347 | -110.60562 | 37928 ft | 426 kts | 301° |
| 2026-04-23 03:45 | 40.12850 | -110.66804 | 37942 ft | 429 kts | 301° |
| 2026-04-23 03:45 | 40.16371 | -110.73091 | 37938 ft | 431 kts | 301° |
| 2026-04-23 03:46 | 40.19915 | -110.79428 | 37948 ft | 433 kts | 301° |
| 2026-04-23 03:46 | 40.23464 | -110.85788 | 37960 ft | 434 kts | 301° |
| 2026-04-23 03:47 | 40.27038 | -110.92206 | 37969 ft | 435 kts | 301° |
| 2026-04-23 03:47 | 40.30598 | -110.98613 | 37985 ft | 436 kts | 301° |
| 2026-04-23 03:48 | 40.34152 | -111.05023 | 37992 ft | 437 kts | 301° |
| 2026-04-23 03:48 | 40.37730 | -111.11487 | 37999 ft | 439 kts | 301° |
| 2026-04-23 03:49 | 40.41309 | -111.17969 | 38016 ft | 439 kts | 301° |
| 2026-04-23 03:49 | 40.44852 | -111.24397 | 38016 ft | 440 kts | 301° |
| 2026-04-23 03:50 | 40.48445 | -111.30930 | 38030 ft | 440 kts | 302° |
| 2026-04-23 03:50 | 40.52014 | -111.37433 | 38033 ft | 440 kts | 302° |
| 2026-04-23 03:51 | 40.55584 | -111.43953 | 38017 ft | 439 kts | 302° |
| 2026-04-23 03:51 | 40.59148 | -111.50472 | 38021 ft | 437 kts | 302° |
| 2026-04-23 03:52 | 40.62689 | -111.56966 | 38014 ft | 436 kts | 302° |
| 2026-04-23 03:52 | 40.66207 | -111.63431 | 38017 ft | 435 kts | 301° |
| 2026-04-23 03:53 | 40.69710 | -111.69882 | 38019 ft | 433 kts | 301° |
| 2026-04-23 03:53 | 40.73228 | -111.76373 | 38034 ft | 432 kts | 301° |
| 2026-04-23 03:54 | 40.76692 | -111.82779 | 38042 ft | 431 kts | 301° |
| 2026-04-23 03:54 | 40.80176 | -111.89236 | 38031 ft | 431 kts | 301° |
| 2026-04-23 03:55 | 40.83634 | -111.95654 | 38037 ft | 430 kts | 301° |
| 2026-04-23 03:55 | 40.87353 | -112.01891 | 38042 ft | 432 kts | 307° |
| 2026-04-23 03:56 | 40.91387 | -112.07797 | 38033 ft | 433 kts | 308° |
| 2026-04-23 03:56 | 40.95436 | -112.13685 | 38023 ft | 433 kts | 308° |
| 2026-04-23 03:57 | 40.99456 | -112.19602 | 38031 ft | 434 kts | 307° |
| 2026-04-23 03:57 | 41.03491 | -112.25593 | 38031 ft | 435 kts | 307° |
| 2026-04-23 03:58 | 41.07503 | -112.31574 | 38005 ft | 437 kts | 307° |
| 2026-04-23 03:58 | 41.11557 | -112.37631 | 38005 ft | 438 kts | 307° |
| 2026-04-23 03:59 | 41.15586 | -112.43660 | 38011 ft | 439 kts | 307° |
| 2026-04-23 03:59 | 41.19652 | -112.49756 | 38005 ft | 440 kts | 307° |
| 2026-04-23 04:00 | 41.23702 | -112.55839 | 38001 ft | 441 kts | 308° |
| 2026-04-23 04:00 | 41.27763 | -112.61952 | 38012 ft | 440 kts | 307° |
| 2026-04-23 04:01 | 41.31812 | -112.68062 | 38013 ft | 438 kts | 307° |
| 2026-04-23 04:01 | 41.35820 | -112.74120 | 38015 ft | 438 kts | 308° |
| 2026-04-23 04:02 | 41.39846 | -112.80219 | 38007 ft | 438 kts | 308° |
| 2026-04-23 04:02 | 41.43858 | -112.86309 | 38020 ft | 439 kts | 308° |
| 2026-04-23 04:03 | 41.47912 | -112.92474 | 38020 ft | 440 kts | 308° |
| 2026-04-23 04:03 | 41.51947 | -112.98625 | 38030 ft | 442 kts | 308° |
| 2026-04-23 04:04 | 41.55995 | -113.04808 | 38023 ft | 444 kts | 308° |
| 2026-04-23 04:04 | 41.60072 | -113.11046 | 38028 ft | 446 kts | 308° |
| 2026-04-23 04:05 | 41.64148 | -113.17297 | 38021 ft | 448 kts | 308° |
| 2026-04-23 04:05 | 41.68237 | -113.23580 | 38032 ft | 450 kts | 308° |
| 2026-04-23 04:06 | 41.72345 | -113.29907 | 38023 ft | 451 kts | 308° |
| 2026-04-23 04:06 | 41.76473 | -113.36278 | 38037 ft | 452 kts | 308° |
| 2026-04-23 04:07 | 41.80583 | -113.42633 | 38031 ft | 452 kts | 308° |
| 2026-04-23 04:07 | 41.84710 | -113.49029 | 38039 ft | 453 kts | 308° |
| 2026-04-23 04:08 | 41.88813 | -113.55403 | 38032 ft | 453 kts | 307° |
| 2026-04-23 04:08 | 41.92940 | -113.61826 | 38038 ft | 452 kts | 308° |
| 2026-04-23 04:09 | 41.97029 | -113.68205 | 38030 ft | 452 kts | 308° |
| 2026-04-23 04:09 | 42.01129 | -113.74615 | 38052 ft | 451 kts | 308° |
| 2026-04-23 04:10 | 42.05210 | -113.81010 | 38037 ft | 451 kts | 308° |
| 2026-04-23 04:10 | 42.09279 | -113.87399 | 38037 ft | 451 kts | 308° |
| 2026-04-23 04:11 | 42.13369 | -113.93834 | 38036 ft | 451 kts | 308° |
| 2026-04-23 04:11 | 42.17429 | -114.00237 | 38037 ft | 451 kts | 308° |
| 2026-04-23 04:12 | 42.20823 | -114.05599 | 38026 ft | 451 kts | 308° |
| 2026-04-23 04:12 | 42.25561 | -114.13101 | 38027 ft | 451 kts | 308° |
| 2026-04-23 04:13 | 42.28949 | -114.18478 | 38026 ft | 451 kts | 308° |
| 2026-04-23 04:13 | 42.33019 | -114.24951 | 38029 ft | 451 kts | 308° |
| 2026-04-23 04:14 | 42.37086 | -114.31433 | 38025 ft | 452 kts | 307° |
| 2026-04-23 04:14 | 42.41141 | -114.37908 | 38032 ft | 452 kts | 307° |
| 2026-04-23 04:15 | 42.45197 | -114.44401 | 38036 ft | 453 kts | 307° |
| 2026-04-23 04:16 | 42.51428 | -114.54031 | 38039 ft | 455 kts | 310° |
| 2026-04-23 04:16 | 42.55796 | -114.60274 | 38021 ft | 455 kts | 311° |
| 2026-04-23 04:17 | 42.60136 | -114.66486 | 38030 ft | 456 kts | 310° |
| 2026-04-23 04:17 | 42.64497 | -114.72795 | 38009 ft | 456 kts | 310° |
| 2026-04-23 04:18 | 42.68815 | -114.79082 | 38020 ft | 457 kts | 310° |
| 2026-04-23 04:18 | 42.73164 | -114.85435 | 38021 ft | 458 kts | 310° |
| 2026-04-23 04:19 | 42.77486 | -114.91760 | 38020 ft | 459 kts | 310° |
| 2026-04-23 04:19 | 42.81846 | -114.98153 | 38024 ft | 459 kts | 310° |
| 2026-04-23 04:20 | 42.86171 | -115.04511 | 38019 ft | 460 kts | 310° |
| 2026-04-23 04:20 | 42.90506 | -115.10895 | 38022 ft | 460 kts | 310° |
| 2026-04-23 04:21 | 42.94870 | -115.17337 | 38017 ft | 461 kts | 310° |
| 2026-04-23 04:21 | 42.99217 | -115.23769 | 38012 ft | 461 kts | 310° |
| 2026-04-23 04:22 | 43.03553 | -115.30198 | 38012 ft | 462 kts | 310° |
| 2026-04-23 04:22 | 43.07916 | -115.36682 | 38012 ft | 462 kts | 310° |
| 2026-04-23 04:23 | 43.12248 | -115.43137 | 38014 ft | 463 kts | 309° |
| 2026-04-23 04:23 | 43.16615 | -115.49654 | 38018 ft | 464 kts | 309° |
| 2026-04-23 04:24 | 43.20953 | -115.56147 | 38024 ft | 464 kts | 309° |
| 2026-04-23 04:24 | 43.25332 | -115.62714 | 38022 ft | 465 kts | 309° |
| 2026-04-23 04:25 | 43.29678 | -115.69248 | 38028 ft | 466 kts | 309° |
| 2026-04-23 04:25 | 43.34060 | -115.75849 | 38025 ft | 467 kts | 309° |
| 2026-04-23 04:26 | 43.38439 | -115.82464 | 38027 ft | 467 kts | 309° |
| 2026-04-23 04:26 | 43.42785 | -115.89042 | 38039 ft | 468 kts | 309° |
| 2026-04-23 04:27 | 43.47164 | -115.95685 | 38052 ft | 468 kts | 309° |
| 2026-04-23 04:27 | 43.51392 | -116.02452 | 38053 ft | 466 kts | 304° |
| 2026-04-23 04:28 | 43.57017 | -116.13406 | 38048 ft | 465 kts | 302° |
| 2026-04-23 04:28 | 43.60689 | -116.20688 | 38057 ft | 465 kts | 302° |
| 2026-04-23 04:29 | 43.64423 | -116.28015 | 38048 ft | 465 kts | 302° |
| 2026-04-23 04:29 | 43.68138 | -116.35276 | 38058 ft | 465 kts | 302° |
| 2026-04-23 04:30 | 43.71880 | -116.42602 | 38068 ft | 465 kts | 302° |
| 2026-04-23 04:30 | 43.75597 | -116.49897 | 38069 ft | 466 kts | 302° |
| 2026-04-23 04:31 | 43.79335 | -116.57254 | 38062 ft | 466 kts | 302° |
| 2026-04-23 04:31 | 43.83072 | -116.64630 | 38058 ft | 467 kts | 302° |
| 2026-04-23 04:32 | 43.86782 | -116.71972 | 38063 ft | 467 kts | 302° |
| 2026-04-23 04:32 | 43.90506 | -116.79359 | 38066 ft | 467 kts | 302° |
| 2026-04-23 04:33 | 43.94209 | -116.86723 | 38067 ft | 467 kts | 302° |
| 2026-04-23 04:33 | 43.97931 | -116.94145 | 38069 ft | 468 kts | 302° |
| 2026-04-23 04:34 | 44.01631 | -117.01539 | 38058 ft | 468 kts | 302° |
| 2026-04-23 04:34 | 44.05350 | -117.08993 | 38069 ft | 468 kts | 302° |
| 2026-04-23 04:35 | 44.09046 | -117.16417 | 38063 ft | 469 kts | 302° |
| 2026-04-23 04:35 | 44.12769 | -117.23916 | 38069 ft | 469 kts | 302° |
| 2026-04-23 04:36 | 44.16465 | -117.31381 | 38066 ft | 469 kts | 301° |
| 2026-04-23 04:36 | 44.20158 | -117.38857 | 38068 ft | 470 kts | 301° |
| 2026-04-23 04:37 | 44.23857 | -117.46366 | 38068 ft | 470 kts | 301° |
| 2026-04-23 04:37 | 44.27563 | -117.53908 | 38072 ft | 471 kts | 301° |
| 2026-04-23 04:38 | 44.31272 | -117.61476 | 38065 ft | 471 kts | 301° |
| 2026-04-23 04:38 | 44.34962 | -117.69024 | 38073 ft | 471 kts | 301° |
| 2026-04-23 04:39 | 44.38646 | -117.76581 | 38072 ft | 471 kts | 301° |
| 2026-04-23 04:39 | 44.42338 | -117.84176 | 38077 ft | 471 kts | 301° |
| 2026-04-23 04:40 | 44.46009 | -117.91743 | 38062 ft | 472 kts | 301° |
| 2026-04-23 04:40 | 44.49658 | -117.99396 | 38069 ft | 470 kts | 297° |
| 2026-04-23 04:41 | 44.52287 | -118.07654 | 38073 ft | 465 kts | 287° |
| 2026-04-23 04:41 | 44.54575 | -118.16184 | 38081 ft | 465 kts | 287° |
| 2026-04-23 04:42 | 44.56854 | -118.24652 | 38070 ft | 466 kts | 287° |
| 2026-04-23 04:42 | 44.59168 | -118.33120 | 38102 ft | 466 kts | 288° |
| 2026-04-23 04:43 | 44.61507 | -118.41636 | 38088 ft | 467 kts | 288° |
| 2026-04-23 04:43 | 44.63831 | -118.50119 | 38120 ft | 467 kts | 288° |
| 2026-04-23 04:44 | 44.66163 | -118.58663 | 38112 ft | 467 kts | 287° |
| 2026-04-23 04:44 | 44.68480 | -118.67190 | 38109 ft | 467 kts | 287° |
| 2026-04-23 04:45 | 44.70776 | -118.75669 | 38113 ft | 467 kts | 287° |
| 2026-04-23 04:45 | 44.73089 | -118.84243 | 38104 ft | 467 kts | 287° |
| 2026-04-23 04:46 | 44.75376 | -118.92749 | 38111 ft | 466 kts | 287° |
| 2026-04-23 04:46 | 44.77660 | -119.01277 | 38129 ft | 465 kts | 287° |
| 2026-04-23 04:47 | 44.79923 | -119.09753 | 38128 ft | 465 kts | 287° |
| 2026-04-23 04:47 | 44.82200 | -119.18316 | 38116 ft | 465 kts | 287° |
| 2026-04-23 04:48 | 44.84447 | -119.26793 | 38127 ft | 464 kts | 287° |
| 2026-04-23 04:48 | 44.86704 | -119.35341 | 38126 ft | 464 kts | 287° |
| 2026-04-23 04:49 | 44.88937 | -119.43828 | 38113 ft | 464 kts | 287° |
| 2026-04-23 04:49 | 44.91181 | -119.52385 | 38114 ft | 464 kts | 287° |
| 2026-04-23 04:50 | 44.93420 | -119.60959 | 38124 ft | 464 kts | 287° |
| 2026-04-23 04:50 | 44.95638 | -119.69481 | 38118 ft | 464 kts | 287° |
| 2026-04-23 04:51 | 44.97868 | -119.78078 | 38117 ft | 465 kts | 286° |
| 2026-04-23 04:51 | 45.00076 | -119.86626 | 38110 ft | 465 kts | 287° |
| 2026-04-23 04:52 | 45.01192 | -119.90961 | 37579 ft | 472 kts | 286° |
| 2026-04-23 04:52 | 45.02316 | -119.95329 | 36975 ft | 469 kts | 286° |
| 2026-04-23 04:52 | 45.03430 | -119.99668 | 36312 ft | 468 kts | 286° |
| 2026-04-23 04:52 | 45.04529 | -120.03954 | 35611 ft | 469 kts | 286° |
| 2026-04-23 04:53 | 45.05647 | -120.08330 | 34830 ft | 473 kts | 285° |
| 2026-04-23 04:53 | 45.06771 | -120.12736 | 33996 ft | 476 kts | 285° |
| 2026-04-23 04:53 | 45.07899 | -120.17171 | 33040 ft | 480 kts | 285° |
| 2026-04-23 04:53 | 45.09018 | -120.21570 | 32140 ft | 482 kts | 286° |
| 2026-04-23 04:54 | 45.10156 | -120.26056 | 31190 ft | 485 kts | 286° |
| 2026-04-23 04:54 | 45.11304 | -120.30584 | 30306 ft | 488 kts | 287° |
| 2026-04-23 04:54 | 45.12435 | -120.35055 | 29492 ft | 486 kts | 287° |
| 2026-04-23 04:54 | 45.13567 | -120.39535 | 28756 ft | 481 kts | 287° |
| 2026-04-23 04:55 | 45.14688 | -120.43981 | 28042 ft | 476 kts | 287° |
| 2026-04-23 04:55 | 45.15795 | -120.48381 | 27343 ft | 472 kts | 287° |
| 2026-04-23 04:55 | 45.16919 | -120.52739 | 26617 ft | 469 kts | 291° |
| 2026-04-23 04:55 | 45.18340 | -120.56890 | 25942 ft | 466 kts | 297° |
| 2026-04-23 04:56 | 45.19912 | -120.60898 | 25256 ft | 463 kts | 299° |
| 2026-04-23 04:56 | 45.21517 | -120.64845 | 24574 ft | 460 kts | 299° |
| 2026-04-23 04:56 | 45.23109 | -120.68774 | 23888 ft | 457 kts | 299° |
| 2026-04-23 04:56 | 45.24650 | -120.72654 | 23130 ft | 454 kts | 298° |
| 2026-04-23 04:57 | 45.26168 | -120.76542 | 22412 ft | 446 kts | 298° |
| 2026-04-23 04:57 | 45.27650 | -120.80387 | 21763 ft | 441 kts | 298° |
| 2026-04-23 04:57 | 45.29116 | -120.84219 | 21078 ft | 437 kts | 297° |
| 2026-04-23 04:57 | 45.30544 | -120.87963 | 20427 ft | 433 kts | 297° |
| 2026-04-23 04:58 | 45.31974 | -120.91712 | 19777 ft | 429 kts | 297° |
| 2026-04-23 04:58 | 45.33390 | -120.95431 | 19110 ft | 421 kts | 297° |
| 2026-04-23 04:58 | 45.34753 | -120.99006 | 18486 ft | 410 kts | 297° |
| 2026-04-23 04:58 | 45.36113 | -121.02582 | 17817 ft | 407 kts | 297° |
| 2026-04-23 04:59 | 45.37434 | -121.06059 | 17573 ft | 394 kts | 297° |
| 2026-04-23 04:59 | 45.38684 | -121.09453 | 17298 ft | 381 kts | 292° |
| 2026-04-23 04:59 | 45.39630 | -121.12953 | 16849 ft | 374 kts | 287° |
| 2026-04-23 04:59 | 45.40403 | -121.16435 | 16150 ft | 371 kts | 285° |
| 2026-04-23 05:00 | 45.41142 | -121.19911 | 15571 ft | 360 kts | 285° |
| 2026-04-23 05:00 | 45.41628 | -121.22154 | 15230 ft | 352 kts | 286° |
| 2026-04-23 05:00 | 45.42608 | -121.26554 | 14603 ft | 347 kts | 286° |
| 2026-04-23 05:00 | 45.43103 | -121.28722 | 14288 ft | 345 kts | 287° |
| 2026-04-23 05:01 | 45.44094 | -121.33006 | 13633 ft | 341 kts | 287° |
| 2026-04-23 05:01 | 45.44595 | -121.35166 | 13287 ft | 338 kts | 288° |
| 2026-04-23 05:01 | 45.45312 | -121.38259 | 13114 ft | 326 kts | 288° |
| 2026-04-23 05:01 | 45.46016 | -121.41296 | 12794 ft | 319 kts | 288° |
| 2026-04-23 05:02 | 45.46705 | -121.44280 | 12434 ft | 313 kts | 288° |
| 2026-04-23 05:02 | 45.47374 | -121.47183 | 12044 ft | 310 kts | 288° |
| 2026-04-23 05:02 | 45.48044 | -121.50094 | 11664 ft | 307 kts | 288° |
| 2026-04-23 05:02 | 45.48709 | -121.52985 | 11263 ft | 304 kts | 288° |
| 2026-04-23 05:03 | 45.49360 | -121.55817 | 10877 ft | 302 kts | 289° |
| 2026-04-23 05:03 | 45.50008 | -121.58644 | 10480 ft | 300 kts | 289° |
| 2026-04-23 05:03 | 45.50651 | -121.61446 | 10284 ft | 291 kts | 289° |
| 2026-04-23 05:03 | 45.51268 | -121.64141 | 10132 ft | 281 kts | 289° |
| 2026-04-23 05:04 | 45.51865 | -121.66755 | 9996 ft | 271 kts | 289° |
| 2026-04-23 05:04 | 45.52432 | -121.69238 | 9799 ft | 264 kts | 289° |
| 2026-04-23 05:04 | 45.52965 | -121.71728 | 9518 ft | 261 kts | 283° |
| 2026-04-23 05:04 | 45.53176 | -121.74315 | 9199 ft | 262 kts | 275° |
| 2026-04-23 05:05 | 45.53260 | -121.76898 | 8884 ft | 259 kts | 274° |
| 2026-04-23 05:05 | 45.53331 | -121.79446 | 8603 ft | 257 kts | 274° |
| 2026-04-23 05:05 | 45.53410 | -121.81989 | 8296 ft | 254 kts | 275° |
| 2026-04-23 05:05 | 45.53499 | -121.84482 | 8010 ft | 248 kts | 275° |
| 2026-04-23 05:06 | 45.53594 | -121.86934 | 7749 ft | 248 kts | 274° |
| 2026-04-23 05:06 | 45.53692 | -121.89362 | 7434 ft | 247 kts | 274° |
| 2026-04-23 05:06 | 45.53789 | -121.91804 | 7303 ft | 239 kts | 274° |
| 2026-04-23 05:06 | 45.53883 | -121.94136 | 7176 ft | 233 kts | 274° |
| 2026-04-23 05:07 | 45.53971 | -121.96405 | 7008 ft | 227 kts | 274° |
| 2026-04-23 05:07 | 45.54061 | -121.98637 | 6874 ft | 221 kts | 274° |
| 2026-04-23 05:07 | 45.54147 | -122.00787 | 6789 ft | 213 kts | 274° |
| 2026-04-23 05:07 | 45.54223 | -122.02843 | 6689 ft | 206 kts | 270° |
| 2026-04-23 05:08 | 45.53877 | -122.04785 | 6579 ft | 203 kts | 244° |
| 2026-04-23 05:08 | 45.53095 | -122.06505 | 6482 ft | 208 kts | 237° |
| 2026-04-23 05:08 | 45.52233 | -122.08208 | 6396 ft | 213 kts | 237° |
| 2026-04-23 05:08 | 45.51369 | -122.09910 | 6293 ft | 216 kts | 237° |
| 2026-04-23 05:09 | 45.50484 | -122.11667 | 6153 ft | 218 kts | 237° |
| 2026-04-23 05:09 | 45.49598 | -122.13433 | 6003 ft | 218 kts | 237° |
| 2026-04-23 05:09 | 45.48729 | -122.15168 | 5871 ft | 216 kts | 237° |
| 2026-04-23 05:09 | 45.47856 | -122.16915 | 5745 ft | 214 kts | 238° |
| 2026-04-23 05:10 | 45.47370 | -122.18777 | 5515 ft | 214 kts | 266° |
| 2026-04-23 05:10 | 45.47433 | -122.20853 | 5235 ft | 210 kts | 277° |
| 2026-04-23 05:10 | 45.47608 | -122.22783 | 4926 ft | 205 kts | 278° |
| 2026-04-23 05:10 | 45.47793 | -122.24781 | 4617 ft | 202 kts | 278° |
| 2026-04-23 05:11 | 45.47976 | -122.26826 | 4332 ft | 213 kts | 278° |
| 2026-04-23 05:11 | 45.48158 | -122.28907 | 4009 ft | 213 kts | 278° |
| 2026-04-23 05:11 | 45.48359 | -122.30971 | 3709 ft | 206 kts | 284° |
| 2026-04-23 05:11 | 45.48950 | -122.32766 | 3498 ft | 195 kts | 301° |
| 2026-04-23 05:12 | 45.49614 | -122.34396 | 3281 ft | 186 kts | 300° |
| 2026-04-23 05:12 | 45.50242 | -122.35971 | 3106 ft | 178 kts | 299° |
| 2026-04-23 05:12 | 45.50833 | -122.37463 | 2938 ft | 171 kts | 299° |
| 2026-04-23 05:12 | 45.51400 | -122.38897 | 2734 ft | 159 kts | 299° |
| 2026-04-23 05:13 | 45.51928 | -122.40240 | 2540 ft | 152 kts | 299° |
| 2026-04-23 05:13 | 45.52445 | -122.41555 | 2367 ft | 152 kts | 299° |
| 2026-04-23 05:13 | 45.52967 | -122.42885 | 2190 ft | 153 kts | 299° |
| 2026-04-23 05:14 | 45.54003 | -122.45532 | 2018 ft | 153 kts | 298° |
| 2026-04-23 05:14 | 45.54515 | -122.46810 | 1908 ft | 143 kts | 300° |
| 2026-04-23 05:14 | 45.54994 | -122.48013 | 1675 ft | 136 kts | 299° |
| 2026-04-23 05:14 | 45.55453 | -122.49190 | 1438 ft | 135 kts | 298° |
| 2026-04-23 05:15 | 45.55915 | -122.50382 | 1218 ft | 139 kts | 298° |
| 2026-04-23 05:15 | 45.56380 | -122.51581 | 952 ft | 138 kts | 297° |
| 2026-04-23 05:15 | 45.56843 | -122.52776 | 717 ft | 138 kts | 297° |
| 2026-04-23 05:15 | 45.57310 | -122.53981 | 522 ft | 138 kts | 297° |
| 2026-04-23 05:16 | 45.57769 | -122.55171 | 334 ft | 137 kts | 297° |
| 2026-04-23 05:16 | 45.58233 | -122.56362 | 132 ft | 137 kts | 298° |
| 2026-04-23 05:16 | 45.58689 | -122.57527 | 38 ft | 127 kts | 299° |
| 2026-04-23 05:16 | 45.59005 | -122.58344 | 37 ft | 47 kts | 299° |
| 2026-04-23 05:17 | 45.59149 | -122.58716 | 37 ft | 30 kts | 297° |
| 2026-04-23 05:17 | 45.59209 | -122.58981 | 39 ft | 26 kts | 278° |
| 2026-04-23 05:17 | 45.59213 | -122.59093 | 39 ft | 5 kts | 268° |
| 2026-04-23 05:17 | 45.59212 | -122.59110 | 39 ft | 3 kts | 268° |
| 2026-04-23 05:18 | 45.59203 | -122.59139 | 39 ft | 3 kts | 216° |
| 2026-04-23 05:18 | 45.59193 | -122.59133 | 39 ft | 2 kts | 141° |
| 2026-04-23 05:18 | 45.59176 | -122.59099 | 39 ft | 9 kts | 120° |
| 2026-04-23 05:18 | 45.59139 | -122.59004 | 39 ft | 12 kts | 118° |
| 2026-04-23 05:19 | 45.59100 | -122.58902 | 39 ft | 12 kts | 119° |
| 2026-04-23 05:19 | 45.59061 | -122.58803 | 38 ft | 11 kts | 119° |
| 2026-04-23 05:19 | 45.59023 | -122.58706 | 37 ft | 11 kts | 119° |
| 2026-04-23 05:19 | 45.58986 | -122.58612 | 39 ft | 11 kts | 119° |
| 2026-04-23 05:20 | 45.58947 | -122.58512 | 39 ft | 12 kts | 119° |
| 2026-04-23 05:20 | 45.58902 | -122.58398 | 38 ft | 14 kts | 119° |
| 2026-04-23 05:20 | 45.58853 | -122.58272 | 36 ft | 15 kts | 119° |
| 2026-04-23 05:20 | 45.58801 | -122.58137 | 38 ft | 16 kts | 119° |
| 2026-04-23 05:21 | 45.58743 | -122.57990 | 38 ft | 18 kts | 119° |
| 2026-04-23 05:21 | 45.58683 | -122.57834 | 38 ft | 18 kts | 119° |
| 2026-04-23 05:21 | 45.58638 | -122.57719 | 36 ft | 9 kts | 119° |
| 2026-04-23 05:21 | 45.58597 | -122.57676 | 38 ft | 8 kts | 181° |
| 2026-04-23 05:22 | 45.58552 | -122.57700 | 39 ft | 5 kts | 195° |
| 2026-04-23 05:22 | 45.58516 | -122.57690 | 39 ft | 5 kts | 159° |
| 2026-04-23 05:22 | 45.58481 | -122.57693 | 39 ft | 4 kts | 210° |
| 2026-04-23 05:22 | 45.58473 | -122.57710 | 38 ft | 0 kts | 265° |
| 2026-04-23 05:23 | 45.58481 | -122.57738 | 39 ft | 4 kts | 294° |
| 2026-04-23 05:23 | 45.58485 | -122.57752 | 39 ft | 0 kts | 296° |